Terminal Aerodrome Forecast
Issued by NWS

Home | Current Version | Previous Version | Text Only | Print | Product List | Glossary On
Versions: 1 2 3 4 5 6 7 8 9 10 11 12 13 14 15 16 17 18 19 20 21 22 23 24 25 26 27 28 29 30 31 32 33 34 35 36 37 38 39 40 41 42 43
000
FTUS41 KRNK 212338
TAFBCB
TAF
KBCB 212338Z 2200/2224 30006KT P6SM SCT017 BKN070
     FM220300 27003KT 5SM BR SCT100 BKN250
     FM220900 00000KT 2SM BR SCT003 BKN250
      TEMPO 2209/2211 1/2SM FG BKN003
     FM221400 29006KT P6SM BKN040
     FM221900 30008KT P6SM VCTS BKN050CB=

USA.gov is the U.S. government's official web portal to all federal, state and local government web resources and services.